CTD3 weather

Lac Sébastien Seaplane Base
Quebec, Canada

Public forecast

Using degrees Celsius for public forecast. Weather courtesy of forecast.io.

Closest aviation weather report (METAR) to Lac Sébastien Seaplane Base

Closest report is CFB Bagotville, 20.2 nm (37.4 km) SSE. Retrieved 2020/06/01 16:00 UTC (17 minutes ago):

CYBG 011600Z 30009KT 25SM BKN045 BKN070 09/M02 A3006 RMK SC5AC2 SLP186

Closest aviation forecast (TAF) to Lac Sébastien Seaplane Base

Closest forecast is CFB Bagotville, 20.2 nm (37.4 km) SSE. Retrieved 2020/06/01 12:42 UTC (4 hours ago):

TAF TAF CYBG 011137Z 0112/0212 28008KT P6SM FEW030 BKN060 FM011800 28012KT P6SM SCT060 BECMG 0123/0201 VRB03KT RMK NXT FCST BY 011800Z